Time;durP1;ratioP1;P1;durP2;ratioP2;P2;SDS_P1;SDS_P2;PMS_P1;PMS_P2;Temp;Humidity;BMP_temperature;BMP_pressure;BME280_temperature;BME280_humidity;BME280_pressure;Samples;Min_cycle;Max_cycle;Signal;HPM_P1;HPM_P2
2021/06/08 00:05:33;;;;;;;1999.90;999.90;;;;;;;20.26;71.29;101619.91;15680264;28;19932;-65
2021/06/08 00:13:06;;;;;;;1999.90;999.90;;;;;;;20.15;71.56;101606.38;15697001;28;20106;-65
2021/06/08 00:20:39;;;;;;;1999.90;999.90;;;;;;;20.04;71.85;101630.84;15700116;28;20037;-64
2021/06/08 00:28:11;;;;;;;1999.90;999.90;;;;;;;19.80;72.67;101629.19;15691579;28;20041;-65
2021/06/08 00:35:44;;;;;;;1999.90;999.90;;;;;;;19.76;72.31;101619.78;15660451;28;20041;-63
2021/06/08 00:43:15;;;;;;;1999.90;999.90;;;;;;;19.80;72.65;101619.84;15642923;28;20525;-64
2021/06/08 00:50:56;;;;;;;1999.90;999.90;;;;;;;19.43;73.79;101627.97;15677047;28;20056;-64
2021/06/08 00:58:27;;;;;;;1999.90;999.90;;;;;;;19.45;73.51;101625.56;15677276;28;20045;-66
2021/06/08 01:06:00;;;;;;;1999.90;999.90;;;;;;;19.34;72.68;101616.84;15659012;28;20552;-65
2021/06/08 01:13:32;;;;;;;1999.90;999.90;;;;;;;19.17;73.40;101608.78;15641226;28;20041;-65
2021/06/08 01:21:07;;;;;;;1999.90;999.90;;;;;;;19.13;73.53;101608.72;15653399;28;20045;-65
2021/06/08 01:28:40;;;;;;;1999.90;999.90;;;;;;;18.97;73.57;101602.28;15658159;28;20045;-65
2021/06/08 01:36:18;;;;;;;1999.90;999.90;;;;;;;18.88;73.32;101604.50;15676434;28;20044;-63
2021/06/08 01:43:51;;;;;;;1999.90;999.90;;;;;;;18.73;73.17;101609.81;15686635;28;20045;-65
2021/06/08 01:51:41;;;;;;;1999.90;999.90;;;;;;;18.63;74.07;101604.69;15653406;28;20430;-65
2021/06/08 01:59:22;;;;;;;1999.90;999.90;;;;;;;18.56;73.94;101590.41;15685860;28;20040;-65
2021/06/08 02:07:06;;;;;;;1999.90;999.90;;;;;;;18.40;73.77;101596.03;15644909;28;20121;-65
2021/06/08 02:14:42;;;;;;;1999.90;999.90;;;;;;;18.24;74.38;101600.06;15685910;28;20102;-65
2021/06/08 02:22:20;;;;;;;1999.90;999.90;;;;;;;18.17;74.84;101617.66;15685162;28;20158;-65
2021/06/08 02:29:53;;;;;;;1999.90;999.90;;;;;;;18.23;74.06;101613.34;15685201;28;20095;-65
2021/06/08 02:37:27;;;;;;;1999.90;999.90;;;;;;;18.23;74.08;101616.19;15684232;28;20048;-65
2021/06/08 02:45:00;;;;;;;1999.90;999.90;;;;;;;18.14;74.37;101602.25;15683708;28;20126;-65
2021/06/08 02:52:35;;;;;;;1999.90;999.90;;;;;;;18.04;74.90;101610.44;15665375;28;20398;-65
2021/06/08 03:00:09;;;;;;;1999.90;999.90;;;;;;;18.04;74.56;101625.38;15682797;28;20088;-65
2021/06/08 03:07:44;;;;;;;1999.90;999.90;;;;;;;17.93;74.69;101620.63;15683050;28;20448;-65
2021/06/08 03:15:18;;;;;;;1999.90;999.90;;;;;;;17.93;74.83;101631.91;15682542;28;20045;-65
2021/06/08 03:22:52;;;;;;;;;;;;;;;18.04;74.74;101627.38;15681977;28;20531;-65
2021/06/08 03:30:26;;;;;;;1999.90;999.90;;;;;;;18.00;74.88;101640.56;15681226;28;20019;-65
2021/06/08 03:38:00;;;;;;;1999.90;999.90;;;;;;;18.10;74.10;101640.03;15672421;28;20110;-63
2021/06/08 03:45:32;;;;;;;1999.90;999.90;;;;;;;18.08;74.10;101636.75;15681175;28;20051;-64
2021/06/08 03:53:06;;;;;;;1999.90;999.90;;;;;;;18.17;74.44;101643.06;15680628;28;20498;-64
2021/06/08 04:00:39;;;;;;;1999.90;999.90;;;;;;;18.27;74.42;101641.72;15679476;28;20060;-63
2021/06/08 04:08:12;;;;;;;1999.90;999.90;;;;;;;18.40;74.62;101632.78;15644530;28;20049;-65
2021/06/08 04:15:44;;;;;;;1999.90;999.90;;;;;;;18.61;74.28;101640.16;15662279;28;20083;-65
2021/06/08 04:23:23;;;;;;;1999.90;999.90;;;;;;;18.92;73.20;101648.63;15678738;28;20504;-65
2021/06/08 04:30:57;;;;;;;1999.90;999.90;;;;;;;19.29;70.85;101654.75;15659401;28;20049;-65
2021/06/08 04:38:30;;;;;;;1999.90;999.90;;;;;;;19.68;70.06;101662.47;15677026;28;20052;-65
2021/06/08 04:46:03;;;;;;;1999.90;999.90;;;;;;;19.87;67.98;101663.28;15676667;28;20048;-66
2021/06/08 04:53:41;;;;;;;1999.90;999.90;;;;;;;20.40;66.18;101663.50;15659491;28;20044;-65
2021/06/08 05:01:36;;;;;;;1999.90;999.90;;;;;;;20.68;64.64;101662.38;15676162;28;20200;-66
2021/06/08 05:09:15;;;;;;;1999.90;999.90;;;;;;;20.98;62.21;101670.97;15658886;28;20312;-65
2021/06/08 05:16:51;;;;;;;1999.90;999.90;;;;;;;21.33;62.39;101677.22;15666563;28;20033;-64
2021/06/08 05:24:29;;;;;;;1999.90;999.90;;;;;;;21.75;58.98;101679.00;15678033;28;20056;-64
2021/06/08 05:32:02;;;;;;;1999.90;999.90;;;;;;;22.46;57.92;101687.53;15681502;28;20068;-65
2021/06/08 05:39:37;;;;;;;1999.90;999.90;;;;;;;22.64;57.60;101680.00;15669921;28;20048;-65
2021/06/08 05:47:09;;;;;;;1999.90;999.90;;;;;;;22.70;56.21;101684.09;15686796;28;20052;-64
2021/06/08 05:54:42;;;;;;;1999.90;999.90;;;;;;;23.44;53.37;101685.88;15652545;28;20049;-62
2021/06/08 06:02:15;;;;;;;1999.90;999.90;;;;;;;24.42;53.39;101691.59;15685861;28;20479;-62
2021/06/08 06:09:48;;;;;;;1999.90;999.90;;;;;;;24.72;51.31;101691.22;15686258;28;20053;-64
2021/06/08 06:17:21;;;;;;;1999.90;999.90;;;;;;;24.72;50.63;101694.91;15685477;28;20067;-63
2021/06/08 06:24:54;;;;;;;1999.90;999.90;;;;;;;25.26;49.45;101709.97;15668017;28;20080;-60
2021/06/08 06:32:28;;;;;;;1999.90;999.90;;;;;;;25.93;49.95;101713.06;15676012;28;20040;-60
2021/06/08 06:40:03;;;;;;;1999.90;999.90;;;;;;;26.27;48.12;101713.34;15710279;28;20049;-64
2021/06/08 06:47:36;;;;;;;1999.90;999.90;;;;;;;27.36;45.40;101710.84;15706609;28;20425;-60
2021/06/08 06:55:11;;;;;;;1999.90;999.90;;;;;;;28.06;42.64;101708.41;15671108;22;20824;-73
2021/06/08 07:21:07;;;;;;;1999.90;999.90;;;;;;;29.37;36.89;101719.06;15665103;28;20048;-68
2021/06/08 07:28:40;;;;;;;1999.90;999.90;;;;;;;29.91;39.80;101727.50;15675324;28;20320;-64
2021/06/08 07:36:21;;;;;;;1999.90;999.90;;;;;;;29.68;40.63;101721.78;15640218;28;20132;-66
2021/06/08 07:43:59;;;;;;;1999.90;999.90;;;;;;;30.25;38.74;101720.63;15657254;28;20451;-66
2021/06/08 07:51:33;;;;;;;1999.90;999.90;;;;;;;30.93;38.51;101719.81;15656129;28;20464;-66
2021/06/08 07:59:05;;;;;;;1999.90;999.90;;;;;;;31.57;34.08;101716.06;15724585;28;20524;-66
2021/06/08 08:06:38;;;;;;;1999.90;999.90;;;;;;;31.23;35.34;101730.19;15723160;28;20236;-65
2021/06/08 08:14:12;;;;;;;1999.90;999.90;;;;;;;31.58;34.43;101722.66;15675027;28;20049;-67
2021/06/08 08:21:45;;;;;;;1999.90;999.90;;;;;;;32.51;32.33;101720.69;15680586;28;20072;-65
2021/06/08 08:29:17;;;;;;;1999.90;999.90;;;;;;;32.57;29.78;101720.94;15674824;28;20086;-66
2021/06/08 08:36:50;;;;;;;1999.90;999.90;;;;;;;32.04;29.20;101730.00;15639097;28;20123;-66
2021/06/08 08:44:24;;;;;;;1999.90;999.90;;;;;;;32.35;28.86;101730.31;15656861;28;20041;-66
2021/06/08 08:52:00;;;;;;;1999.90;999.90;;;;;;;32.30;30.06;101721.38;15685790;28;20052;-66
2021/06/08 08:59:35;;;;;;;1999.90;999.90;;;;;;;32.11;32.01;101723.19;15671277;28;20493;-66
2021/06/08 09:07:09;;;;;;;1999.90;999.90;;;;;;;32.70;30.50;101716.78;15686514;28;20060;-66
2021/06/08 09:14:40;;;;;;;1999.90;999.90;;;;;;;33.04;30.61;101712.38;15710353;28;20074;-67
2021/06/08 09:22:14;;;;;;;1999.90;999.90;;;;;;;33.11;29.49;101706.34;15724014;28;20049;-67
2021/06/08 09:29:46;;;;;;;1999.90;999.90;;;;;;;32.68;30.40;101712.75;15682443;28;20037;-67
2021/06/08 09:37:33;;;;;;;1999.90;999.90;;;;;;;33.47;30.71;101714.59;15682062;28;20060;-67
2021/06/08 09:45:13;;;;;;;1999.90;999.90;;;;;;;33.53;30.81;101711.88;15680937;28;20037;-67
2021/06/08 09:52:48;;;;;;;1999.90;999.90;;;;;;;34.23;30.11;101707.59;15710717;28;20047;-65
2021/06/08 10:00:22;;;;;;;1999.90;999.90;;;;;;;34.50;30.06;101709.03;15706347;28;20049;-67
2021/06/08 10:08:06;;;;;;;1999.90;999.90;;;;;;;34.88;31.19;101703.69;15680158;28;20057;-65
2021/06/08 10:15:51;;;;;;;1999.90;999.90;;;;;;;34.63;30.91;101698.94;15678778;28;20049;-65
2021/06/08 10:23:25;;;;;;;1999.90;999.90;;;;;;;34.75;29.14;101705.09;15678305;28;20041;-65
2021/06/08 10:30:58;;;;;;;1999.90;999.90;;;;;;;35.80;30.34;101700.88;15660300;28;20075;-65
2021/06/08 10:38:32;;;;;;;1999.90;999.90;;;;;;;33.98;29.38;101702.78;15677155;28;20049;-66
2021/06/08 10:46:03;;;;;;;1999.90;999.90;;;;;;;33.15;31.84;101691.78;15676843;28;20041;-66
2021/06/08 10:53:40;;;;;;;1999.90;999.90;;;;;;;32.76;32.78;101684.41;15676661;28;20124;-67
2021/06/08 11:01:46;;;;;;;1999.90;999.90;;;;;;;35.88;29.79;101692.69;15702483;28;20117;-67
2021/06/08 11:09:31;;;;;;;1999.90;999.90;;;;;;;32.06;31.75;101681.25;15736947;28;20098;-69
2021/06/08 11:17:04;;;;;;;1999.90;999.90;;;;;;;32.44;29.94;101668.97;15720564;28;20049;-67
2021/06/08 11:24:39;;;;;;;1999.90;999.90;;;;;;;34.91;29.84;101676.66;15720808;28;20048;-66
2021/06/08 11:32:44;;;;;;;1999.90;999.90;;;;;;;31.73;33.19;101679.78;15737377;28;20469;-68
2021/06/08 11:40:54;;;;;;;1999.90;999.90;;;;;;;32.21;31.15;101658.53;15712033;28;20521;-68
2021/06/08 11:48:31;;;;;;;1999.90;999.90;;;;;;;31.46;33.60;101654.97;15735492;28;20052;-68
2021/06/08 11:56:07;;;;;;;1999.90;999.90;;;;;;;34.07;30.43;101644.09;15737265;28;20090;-67
2021/06/08 12:03:41;;;;;;;1999.90;999.90;;;;;;;33.57;30.89;101638.16;15737843;28;20098;-68
2021/06/08 12:11:16;;;;;;;1999.90;999.90;;;;;;;36.29;28.44;101644.63;15651403;28;20168;-68
2021/06/08 12:18:49;;;;;;;1999.90;999.90;;;;;;;34.12;31.48;101641.41;15718541;28;20060;-66
2021/06/08 12:26:23;;;;;;;1999.90;999.90;;;;;;;31.99;32.93;101626.63;15732130;28;20048;-67
2021/06/08 12:33:57;;;;;;;1999.90;999.90;;;;;;;31.56;33.45;101618.44;15729252;28;20221;-68
2021/06/08 12:41:29;;;;;;;1999.90;999.90;;;;;;;35.98;28.47;101634.09;15732881;28;20119;-67
2021/06/08 12:49:03;;;;;;;1999.90;999.90;;;;;;;38.50;26.05;101632.69;15717579;28;20481;-67
2021/06/08 12:56:36;;;;;;;1999.90;999.90;;;;;;;33.28;32.82;101615.25;15736087;22;20102;-66
2021/06/08 13:04:09;;;;;;;1999.90;999.90;;;;;;;35.94;29.45;101630.53;15673428;28;20041;-65
2021/06/08 13:11:41;;;;;;;1999.90;999.90;;;;;;;33.61;33.07;101611.97;15657585;28;20132;-65
2021/06/08 13:19:18;;;;;;;1999.90;999.90;;;;;;;33.56;32.09;101607.63;15665256;28;20133;-65
2021/06/08 13:26:51;;;;;;;1999.90;999.90;;;;;;;32.54;33.29;101603.44;15675637;28;20072;-66
2021/06/08 13:34:27;;;;;;;1999.90;999.90;;;;;;;31.64;32.28;101591.00;15677837;28;20148;-65
2021/06/08 13:41:59;;;;;;;1999.90;999.90;;;;;;;32.97;32.98;101592.03;15685384;28;20390;-66
2021/06/08 13:49:42;;;;;;;;;;;;;;;31.60;33.89;101594.00;15687419;28;20049;-65
2021/06/08 13:57:20;;;;;;;1999.90;999.90;;;;;;;31.89;33.91;101581.63;15688629;28;19921;-66
2021/06/08 14:04:54;;;;;;;1999.90;999.90;;;;;;;32.00;32.93;101582.09;15687238;28;20114;-66
2021/06/08 14:12:26;;;;;;;1999.90;999.90;;;;;;;31.91;33.85;101579.09;15686340;28;20394;-67
2021/06/08 14:19:59;;;;;;;1999.90;999.90;;;;;;;31.71;34.47;101573.50;15685181;28;20175;-67
2021/06/08 14:27:34;;;;;;;1999.90;999.90;;;;;;;31.34;34.07;101572.13;15684258;28;20098;-66
2021/06/08 14:35:08;;;;;;;1999.90;999.90;;;;;;;30.97;35.40;101565.75;15685494;28;20343;-67
2021/06/08 14:42:40;;;;;;;1999.90;999.90;;;;;;;30.54;35.18;101562.41;15684559;28;20033;-67
2021/06/08 14:50:14;;;;;;;1999.90;999.90;;;;;;;30.31;35.75;101564.19;15667052;28;20049;-66
2021/06/08 14:57:46;;;;;;;1999.90;999.90;;;;;;;30.01;35.63;101559.53;15666865;28;20044;-66
2021/06/08 15:05:19;;;;;;;1999.90;999.90;;;;;;;30.52;34.45;101551.31;15665908;28;20132;-67
2021/06/08 15:12:51;;;;;;;1999.90;999.90;;;;;;;30.16;36.55;101537.03;15684092;28;20076;-67
2021/06/08 15:20:24;;;;;;;1999.90;999.90;;;;;;;30.17;35.49;101547.28;15680825;28;20492;-66
2021/06/08 15:27:57;;;;;;;1999.90;999.90;;;;;;;29.78;35.97;101539.56;15680347;28;20130;-67
2021/06/08 15:35:30;;;;;;;1999.90;999.90;;;;;;;30.09;36.46;101546.63;15680811;28;20095;-66
2021/06/08 15:43:02;;;;;;;1999.90;999.90;;;;;;;29.58;36.55;101533.84;15679330;28;20052;-65
2021/06/08 15:50:35;;;;;;;1999.90;999.90;;;;;;;29.17;38.55;101519.94;15679723;28;20049;-65
2021/06/08 15:58:07;;;;;;;1999.90;999.90;;;;;;;29.21;37.27;101524.38;15678533;28;20045;-67
2021/06/08 16:05:40;;;;;;;1999.90;999.90;;;;;;;28.95;36.71;101516.69;15677080;28;20037;-65
2021/06/08 16:13:11;;;;;;;1999.90;999.90;;;;;;;28.64;38.62;101513.97;15676422;28;20041;-65
2021/06/08 16:20:44;;;;;;;1999.90;999.90;;;;;;;28.57;36.82;101505.50;15676131;28;20394;-65
2021/06/08 16:28:18;;;;;;;1999.90;999.90;;;;;;;28.39;38.30;101510.75;15675387;28;20057;-66
2021/06/08 16:35:52;;;;;;;1999.90;999.90;;;;;;;28.32;37.87;101510.88;15676131;28;20494;-65
2021/06/08 16:43:24;;;;;;;1999.90;999.90;;;;;;;28.04;38.82;101515.84;15676981;28;20299;-66
2021/06/08 16:51:13;;;;;;;1999.90;999.90;;;;;;;27.88;38.92;101513.63;15676465;28;20045;-66
2021/06/08 16:58:45;;;;;;;1999.90;999.90;;;;;;;27.99;38.97;101509.78;15676235;28;20074;-66
2021/06/08 17:06:18;;;;;;;1999.90;999.90;;;;;;;28.07;38.92;101509.22;15674982;28;20041;-66
2021/06/08 17:13:50;;;;;;;1999.90;999.90;;;;;;;27.76;39.51;101510.56;15684781;28;20382;-65
2021/06/08 17:21:23;;;;;;;1999.90;999.90;;;;;;;27.71;39.83;101506.09;15688635;28;20053;-65
2021/06/08 17:28:54;;;;;;;1999.90;999.90;;;;;;;27.41;39.21;101515.53;15686046;28;20309;-66
2021/06/08 17:36:27;;;;;;;1999.90;999.90;;;;;;;27.31;40.03;101531.63;15687827;28;20037;-66
2021/06/08 17:43:59;;;;;;;1999.90;999.90;;;;;;;27.06;41.65;101530.28;15686870;28;20045;-66
2021/06/08 17:51:32;;;;;;;1999.90;999.90;;;;;;;27.13;41.14;101531.03;15685172;28;20053;-66
2021/06/08 17:59:04;;;;;;;1999.90;999.90;;;;;;;26.90;41.73;101530.88;15683346;28;20037;-65
2021/06/08 18:06:37;;;;;;;1999.90;999.90;;;;;;;26.86;41.47;101539.47;15684815;28;20037;-65
2021/06/08 18:14:09;;;;;;;1999.90;999.90;;;;;;;26.48;41.42;101540.72;15666920;28;20053;-65
2021/06/08 18:21:43;;;;;;;1999.90;999.90;;;;;;;26.52;42.48;101550.88;15684941;28;20112;-63
2021/06/08 18:29:15;;;;;;;1999.90;999.90;;;;;;;26.34;42.22;101551.00;15667135;28;20076;-64
2021/06/08 18:36:51;;;;;;;1999.90;999.90;;;;;;;26.28;42.73;101555.56;15650858;28;20045;-65
2021/06/08 18:44:22;;;;;;;1999.90;999.90;;;;;;;26.14;44.37;101555.66;15684449;28;20062;-65
2021/06/08 18:51:57;;;;;;;1999.90;999.90;;;;;;;25.94;44.13;101571.75;15683804;28;20053;-65
2021/06/08 18:59:28;;;;;;;1999.90;999.90;;;;;;;25.80;45.06;101579.19;15691794;22;20051;-61
2021/06/08 19:07:01;;;;;;;1999.90;999.90;;;;;;;25.54;45.29;101589.09;15678638;28;20421;-61
2021/06/08 19:14:33;;;;;;;1999.90;999.90;;;;;;;25.43;46.55;101584.63;15678216;28;20124;-62
2021/06/08 19:22:21;;;;;;;1999.90;999.90;;;;;;;24.94;47.96;101587.22;15668311;28;20041;-62
2021/06/08 19:29:53;;;;;;;1999.90;999.90;;;;;;;24.55;48.73;101607.25;15643879;28;20125;-61
2021/06/08 19:37:27;;;;;;;1999.90;999.90;;;;;;;24.40;48.59;101609.28;15670465;28;20071;-61
2021/06/08 19:44:58;;;;;;;1999.90;999.90;;;;;;;24.09;50.57;101613.72;15657675;28;20045;-62
2021/06/08 19:52:31;;;;;;;1999.90;999.90;;;;;;;23.90;49.58;101614.06;15675096;28;20045;-63
2021/06/08 20:00:05;;;;;;;1999.90;999.90;;;;;;;23.89;50.09;101615.28;15673987;28;20048;-61
2021/06/08 20:07:38;;;;;;;1999.90;999.90;;;;;;;23.62;51.12;101611.94;15673989;28;20124;-62
2021/06/08 20:15:11;;;;;;;1999.90;999.90;;;;;;;23.52;49.23;101619.19;15674541;28;20536;-60
2021/06/08 20:22:44;;;;;;;1999.90;999.90;;;;;;;23.40;49.99;101628.09;15675125;28;20045;-59
2021/06/08 20:30:17;;;;;;;1999.90;999.90;;;;;;;23.28;51.31;101645.53;15673521;28;20049;-60
2021/06/08 20:37:52;;;;;;;1999.90;999.90;;;;;;;23.12;51.95;101637.28;15674246;28;20084;-62
2021/06/08 20:45:25;;;;;;;1999.90;999.90;;;;;;;22.99;50.99;101647.38;15665979;28;20045;-60
2021/06/08 20:52:59;;;;;;;1999.90;999.90;;;;;;;22.83;52.66;101658.22;15661152;28;20473;-63
2021/06/08 21:00:34;;;;;;;1999.90;999.90;;;;;;;22.62;52.18;101662.50;15652696;28;20064;-64
2021/06/08 21:08:09;;;;;;;1999.90;999.90;;;;;;;22.43;50.71;101663.53;15674439;28;20033;-62
2021/06/08 21:15:40;;;;;;;1999.90;999.90;;;;;;;22.53;51.44;101679.09;15672593;28;20145;-63
2021/06/08 21:23:14;;;;;;;1999.90;999.90;;;;;;;22.37;49.65;101690.69;15653142;28;20052;-63
2021/06/08 21:38:57;;;;;;;1999.90;999.90;;;;;;;22.02;49.56;101695.97;15646083;28;20060;-63
2021/06/08 21:46:28;;;;;;;1999.90;999.90;;;;;;;21.93;49.64;101701.94;15670947;28;20099;-62
2021/06/08 21:54:02;;;;;;;1999.90;999.90;;;;;;;21.82;49.58;101715.22;15653961;28;20391;-64
2021/06/08 22:01:36;;;;;;;1999.90;999.90;;;;;;;21.55;49.23;101709.56;15682821;28;20045;-62
2021/06/08 22:09:09;;;;;;;1999.90;999.90;;;;;;;21.60;49.20;101714.91;15682412;28;20165;-63
2021/06/08 22:16:41;;;;;;;;;;;;;;;21.47;49.40;101712.72;15664324;28;20115;-63
2021/06/08 22:24:13;;;;;;;1999.90;999.90;;;;;;;21.20;50.85;101709.03;15664362;28;19934;-62
2021/06/08 22:31:45;;;;;;;1999.90;999.90;;;;;;;20.99;49.51;101721.66;15663226;28;20037;-62
2021/06/08 22:39:18;;;;;;;1999.90;999.90;;;;;;;21.13;49.94;101721.06;15663817;28;20044;-62
2021/06/08 22:46:49;;;;;;;1999.90;999.90;;;;;;;20.98;49.78;101724.88;15648213;28;20037;-62
2021/06/08 22:54:23;;;;;;;1999.90;999.90;;;;;;;20.64;50.13;101719.06;15662463;28;20074;-63
2021/06/08 23:01:55;;;;;;;1999.90;999.90;;;;;;;20.52;50.74;101715.56;15661645;28;20060;-63
2021/06/08 23:09:28;;;;;;;1999.90;999.90;;;;;;;20.74;49.58;101726.09;15656381;28;20053;-62
2021/06/08 23:17:00;;;;;;;1999.90;999.90;;;;;;;20.51;51.29;101720.41;15676067;28;20462;-60
2021/06/08 23:24:33;;;;;;;1999.90;999.90;;;;;;;20.49;49.62;101724.81;15680006;28;20136;-61
2021/06/08 23:32:05;;;;;;;;;;;;;;;20.49;50.63;101725.66;15677666;28;20049;-61
2021/06/08 23:39:38;;;;;;;1999.90;999.90;;;;;;;20.28;50.48;101730.88;15658631;28;19933;-62
2021/06/08 23:47:09;;;;;;;1999.90;999.90;;;;;;;20.13;50.26;101732.63;15676695;28;20045;-61
2021/06/08 23:54:42;;;;;;;1999.90;999.90;;;;;;;20.04;51.12;101724.34;15674740;28;20037;-61
